sensor_id;sensor_type;location;lat;lon;timestamp;P1;durP1;ratioP1;P2;durP2;ratioP2
45198;SDS011;30941;46.422;18.772;2023-12-28T20:31:58;36.50;;;22.50;;
45198;SDS011;30941;46.422;18.772;2023-12-28T20:34:24;35.78;;;21.98;;
45198;SDS011;30941;46.422;18.772;2023-12-28T20:36:50;30.85;;;21.08;;
45198;SDS011;30941;46.422;18.772;2023-12-28T20:39:18;29.65;;;21.88;;
45198;SDS011;30941;46.422;18.772;2023-12-28T20:41:45;29.83;;;21.25;;
45198;SDS011;30941;46.422;18.772;2023-12-28T20:44:12;31.95;;;22.05;;
45198;SDS011;30941;46.422;18.772;2023-12-28T20:46:38;32.55;;;21.90;;
45198;SDS011;30941;46.422;18.772;2023-12-28T20:49:05;28.90;;;21.23;;
45198;SDS011;30941;46.422;18.772;2023-12-28T20:51:31;31.63;;;21.48;;
45198;SDS011;30941;46.422;18.772;2023-12-28T20:53:58;33.42;;;20.65;;
45198;SDS011;30941;46.422;18.772;2023-12-28T20:56:24;32.55;;;21.77;;
45198;SDS011;30941;46.422;18.772;2023-12-28T20:58:50;35.33;;;21.83;;
45198;SDS011;30941;46.422;18.772;2023-12-28T21:01:16;33.10;;;22.15;;
45198;SDS011;30941;46.422;18.772;2023-12-28T21:03:41;32.78;;;22.00;;
45198;SDS011;30941;46.422;18.772;2023-12-28T21:06:07;32.63;;;21.73;;
45198;SDS011;30941;46.422;18.772;2023-12-28T21:08:32;35.83;;;23.55;;
45198;SDS011;30941;46.422;18.772;2023-12-28T21:10:58;31.42;;;21.05;;
45198;SDS011;30941;46.422;18.772;2023-12-28T21:13:24;27.52;;;19.10;;
45198;SDS011;30941;46.422;18.772;2023-12-28T21:15:52;26.80;;;18.80;;
45198;SDS011;30941;46.422;18.772;2023-12-28T21:18:18;31.15;;;18.77;;
45198;SDS011;30941;46.422;18.772;2023-12-28T21:20:44;29.80;;;19.10;;
45198;SDS011;30941;46.422;18.772;2023-12-28T21:23:09;33.20;;;20.50;;
45198;SDS011;30941;46.422;18.772;2023-12-28T21:25:35;30.40;;;19.33;;
45198;SDS011;30941;46.422;18.772;2023-12-28T21:28:00;28.17;;;18.42;;
45198;SDS011;30941;46.422;18.772;2023-12-28T21:30:25;27.20;;;17.77;;
45198;SDS011;30941;46.422;18.772;2023-12-28T21:32:51;27.92;;;18.13;;
45198;SDS011;30941;46.422;18.772;2023-12-28T21:35:17;26.08;;;17.55;;
45198;SDS011;30941;46.422;18.772;2023-12-28T21:37:42;24.38;;;16.52;;
45198;SDS011;30941;46.422;18.772;2023-12-28T21:40:07;26.02;;;17.60;;
45198;SDS011;30941;46.422;18.772;2023-12-28T21:42:33;28.27;;;17.60;;
45198;SDS011;30941;46.422;18.772;2023-12-28T21:44:58;25.65;;;17.90;;
45198;SDS011;30941;46.422;18.772;2023-12-28T21:47:26;32.47;;;21.00;;
45198;SDS011;30941;46.422;18.772;2023-12-28T21:49:52;33.35;;;21.95;;
45198;SDS011;30941;46.422;18.772;2023-12-28T21:52:17;37.33;;;22.55;;
45198;SDS011;30941;46.422;18.772;2023-12-28T21:54:43;34.40;;;21.77;;
45198;SDS011;30941;46.422;18.772;2023-12-28T21:57:08;39.10;;;22.52;;
45198;SDS011;30941;46.422;18.772;2023-12-28T21:59:33;36.13;;;21.17;;
45198;SDS011;30941;46.422;18.772;2023-12-28T22:01:59;33.00;;;19.90;;
45198;SDS011;30941;46.422;18.772;2023-12-28T22:04:24;33.85;;;20.55;;
45198;SDS011;30941;46.422;18.772;2023-12-28T22:06:50;30.48;;;19.40;;
45198;SDS011;30941;46.422;18.772;2023-12-28T22:09:16;30.27;;;19.60;;
45198;SDS011;30941;46.422;18.772;2023-12-28T22:11:42;29.13;;;19.15;;
45198;SDS011;30941;46.422;18.772;2023-12-28T22:14:07;31.02;;;17.60;;
45198;SDS011;30941;46.422;18.772;2023-12-28T22:16:33;28.67;;;17.00;;
45198;SDS011;30941;46.422;18.772;2023-12-28T22:18:58;27.60;;;17.20;;
45198;SDS011;30941;46.422;18.772;2023-12-28T22:21:23;27.85;;;17.63;;
45198;SDS011;30941;46.422;18.772;2023-12-28T22:23:49;26.08;;;15.88;;
45198;SDS011;30941;46.422;18.772;2023-12-28T22:26:14;27.48;;;17.58;;
45198;SDS011;30941;46.422;18.772;2023-12-28T22:28:40;23.83;;;15.07;;
45198;SDS011;30941;46.422;18.772;2023-12-28T22:31:05;24.88;;;15.07;;
45198;SDS011;30941;46.422;18.772;2023-12-28T22:33:31;21.27;;;12.52;;
45198;SDS011;30941;46.422;18.772;2023-12-28T22:35:56;18.33;;;12.00;;
45198;SDS011;30941;46.422;18.772;2023-12-28T22:38:21;17.45;;;10.95;;
45198;SDS011;30941;46.422;18.772;2023-12-28T22:40:48;16.42;;;9.70;;
45198;SDS011;30941;46.422;18.772;2023-12-28T22:43:14;16.48;;;9.80;;
45198;SDS011;30941;46.422;18.772;2023-12-28T22:45:39;14.13;;;8.90;;
45198;SDS011;30941;46.422;18.772;2023-12-28T22:48:05;15.32;;;9.20;;
45198;SDS011;30941;46.422;18.772;2023-12-28T22:50:30;14.85;;;9.35;;
45198;SDS011;30941;46.422;18.772;2023-12-28T22:52:57;15.02;;;10.05;;
45198;SDS011;30941;46.422;18.772;2023-12-28T22:55:23;13.70;;;8.70;;
45198;SDS011;30941;46.422;18.772;2023-12-28T22:57:48;17.42;;;10.50;;
45198;SDS011;30941;46.422;18.772;2023-12-28T23:00:14;20.13;;;9.13;;
45198;SDS011;30941;46.422;18.772;2023-12-28T23:02:46;12.93;;;9.40;;
45198;SDS011;30941;46.422;18.772;2023-12-28T23:05:11;13.85;;;8.82;;
45198;SDS011;30941;46.422;18.772;2023-12-28T23:07:38;15.15;;;9.60;;
45198;SDS011;30941;46.422;18.772;2023-12-28T23:10:05;16.42;;;9.75;;
45198;SDS011;30941;46.422;18.772;2023-12-28T23:12:30;20.13;;;11.00;;
45198;SDS011;30941;46.422;18.772;2023-12-28T23:14:56;19.73;;;11.30;;
45198;SDS011;30941;46.422;18.772;2023-12-28T23:17:22;22.50;;;13.45;;
45198;SDS011;30941;46.422;18.772;2023-12-28T23:19:47;23.45;;;14.15;;
45198;SDS011;30941;46.422;18.772;2023-12-28T23:22:13;31.88;;;19.00;;
45198;SDS011;30941;46.422;18.772;2023-12-28T23:24:41;29.10;;;17.20;;
45198;SDS011;30941;46.422;18.772;2023-12-28T23:27:07;27.33;;;16.98;;
45198;SDS011;30941;46.422;18.772;2023-12-28T23:29:34;34.63;;;18.45;;
45198;SDS011;30941;46.422;18.772;2023-12-28T23:31:59;28.52;;;16.83;;
45198;SDS011;30941;46.422;18.772;2023-12-28T23:34:25;20.25;;;13.77;;
45198;SDS011;30941;46.422;18.772;2023-12-28T23:36:51;22.20;;;12.55;;
45198;SDS011;30941;46.422;18.772;2023-12-28T23:39:17;21.58;;;12.50;;
45198;SDS011;30941;46.422;18.772;2023-12-28T23:41:42;16.48;;;9.63;;
45198;SDS011;30941;46.422;18.772;2023-12-28T23:44:07;15.75;;;9.10;;
45198;SDS011;30941;46.422;18.772;2023-12-28T23:46:36;15.93;;;8.73;;
45198;SDS011;30941;46.422;18.772;2023-12-28T23:49:03;13.73;;;8.73;;
45198;SDS011;30941;46.422;18.772;2023-12-28T23:51:29;14.13;;;8.18;;
45198;SDS011;30941;46.422;18.772;2023-12-28T23:53:54;13.55;;;7.72;;
45198;SDS011;30941;46.422;18.772;2023-12-28T23:56:19;12.63;;;7.72;;
45198;SDS011;30941;46.422;18.772;2023-12-28T23:58:46;11.05;;;7.63;;
